Terminal Aerodrome Forecast
Issued by NWS Buffalo, NY

Home | Current Version | Previous Version | Text Only | Print | Product List | Glossary On
Versions: 1 2 3 4 5 6 7 8 9 10 11 12 13 14 15 16 17 18 19 20 21
000
FTUS41 KBUF 221700
TAFROC
TAF
KROC 221726Z 2218/2318 15009KT P6SM SKC
     FM230500 13005KT P6SM BKN100 OVC150
     FM230800 13005KT P6SM VCSH BKN040 OVC060=

USA.gov is the U.S. government's official web portal to all federal, state and local government web resources and services.